Time;durP1;ratioP1;P1;durP2;ratioP2;P2;SDS_P1;SDS_P2;PMS_P1;PMS_P2;Temp;Humidity;BMP_temperature;BMP_pressure;BME280_temperature;BME280_humidity;BME280_pressure;Samples;Min_cycle;Max_cycle;Signal;HPM_P1;HPM_P2
2021/09/22 00:00:23;;;;;;;24.23;20.63;;;11.70;99.90;;;;;;5135997;27;20482;-59
2021/09/22 00:02:52;;;;;;;24.45;20.17;;;11.70;99.90;;;;;;5146377;27;20134;-59
2021/09/22 00:05:23;;;;;;;24.77;22.15;;;11.60;99.90;;;;;;5152349;27;20061;-58
2021/09/22 00:07:52;;;;;;;22.90;20.17;;;11.70;99.90;;;;;;5152197;27;20451;-59
2021/09/22 00:10:23;;;;;;;32.10;28.13;;;11.60;99.90;;;;;;5147770;27;20058;-60
2021/09/22 00:12:49;;;;;;;34.42;25.40;;;11.70;99.90;;;;;;5134107;27;20058;-60
2021/09/22 00:15:18;;;;;;;26.98;23.77;;;11.80;99.90;;;;;;5141574;27;20057;-60
2021/09/22 00:17:50;;;;;;;29.70;26.50;;;11.80;99.90;;;;;;5151217;27;20054;-60
2021/09/22 00:20:22;;;;;;;;;;;11.80;99.90;;;;;;5131134;27;20055;-60
2021/09/22 00:22:55;;;;;;;26.65;22.70;;;11.90;99.90;;;;;;5149210;27;19974;-60
2021/09/22 00:25:29;;;;;;;30.38;24.48;;;11.80;99.90;;;;;;5151137;27;20062;-60
2021/09/22 00:28:00;;;;;;;26.10;22.42;;;11.90;99.90;;;;;;5148120;27;20443;-60
2021/09/22 00:30:29;;;;;;;27.30;24.08;;;11.90;99.90;;;;;;5141534;27;20043;-60
2021/09/22 00:33:07;;;;;;;26.02;23.17;;;11.80;99.90;;;;;;5151521;27;20514;-60
2021/09/22 00:35:36;;;;;;;26.38;23.58;;;11.80;99.90;;;;;;5139179;27;20051;-60
2021/09/22 00:38:06;;;;;;;27.80;24.92;;;11.80;99.90;;;;;;5147159;27;20054;-60
2021/09/22 00:40:39;;;;;;;29.45;25.33;;;11.70;99.90;;;;;;5146234;27;20050;-60
2021/09/22 00:43:09;;;;;;;32.63;26.48;;;11.70;99.90;;;;;;5114549;27;20483;-60
2021/09/22 00:45:41;;;;;;;32.15;26.45;;;11.60;99.90;;;;;;5144769;27;20046;-60
2021/09/22 00:48:09;;;;;;;31.35;25.98;;;11.60;99.90;;;;;;5151256;27;20089;-60
2021/09/22 00:50:43;;;;;;;36.45;29.02;;;11.50;99.90;;;;;;5129576;27;20055;-60
2021/09/22 00:53:12;;;;;;;;;;;11.50;99.90;;;;;;5151816;27;20059;-61
2021/09/22 00:55:40;;;;;;;36.85;30.55;;;11.50;99.90;;;;;;5132920;27;19934;-60
2021/09/22 00:58:12;;;;;;;37.90;30.20;;;11.50;99.90;;;;;;5133026;27;20050;-60
2021/09/22 01:00:41;;;;;;;30.95;27.20;;;11.40;99.90;;;;;;5149292;27;20111;-60
2021/09/22 01:03:07;;;;;;;35.95;30.70;;;11.40;99.90;;;;;;5151011;27;20082;-60
2021/09/22 01:05:38;;;;;;;40.47;33.40;;;11.50;99.90;;;;;;5150894;27;20082;-60
2021/09/22 01:08:07;;;;;;;47.88;37.53;;;11.50;99.90;;;;;;5151337;27;20071;-60
2021/09/22 01:10:37;;;;;;;41.05;31.55;;;11.60;99.90;;;;;;5151116;27;20053;-59
2021/09/22 01:13:06;;;;;;;41.17;33.15;;;11.60;99.90;;;;;;5132372;27;20059;-60
2021/09/22 01:15:38;;;;;;;39.72;29.83;;;11.70;99.90;;;;;;5151558;27;20061;-60
2021/09/22 01:18:11;;;;;;;37.13;30.05;;;11.70;99.90;;;;;;5150063;27;20139;-60
2021/09/22 01:20:41;;;;;;;39.10;31.50;;;11.60;99.90;;;;;;5151496;27;20049;-60
2021/09/22 01:23:10;;;;;;;35.17;30.23;;;11.70;99.90;;;;;;5112434;27;20047;-61
2021/09/22 01:25:43;;;;;;;31.60;26.93;;;11.70;99.90;;;;;;5123809;27;20082;-61
2021/09/22 01:28:13;;;;;;;32.20;27.75;;;11.60;99.90;;;;;;5132058;27;20427;-61
2021/09/22 01:30:47;;;;;;;32.53;27.52;;;11.60;99.90;;;;;;5149847;27;20038;-61
2021/09/22 01:33:17;;;;;;;;;;;11.60;99.90;;;;;;5133038;27;20069;-61
2021/09/22 01:35:51;;;;;;;34.30;27.73;;;11.60;99.90;;;;;;5124126;27;19978;-60
2021/09/22 01:38:24;;;;;;;27.67;24.88;;;11.50;99.90;;;;;;5123091;27;20051;-61
2021/09/22 01:41:34;;;;;;;39.78;28.85;;;11.50;99.90;;;;;;5081673;28;20139;-61
2021/09/22 01:44:10;;;;;;;32.42;26.08;;;11.40;99.90;;;;;;5065786;28;20052;-60
2021/09/22 01:47:17;;;;;;;28.42;25.10;;;11.40;99.90;;;;;;5058113;28;20589;-60
2021/09/22 01:50:21;;;;;;;30.80;27.00;;;11.30;99.90;;;;;;5047130;28;20052;-60
2021/09/22 01:52:56;;;;;;;31.40;28.02;;;11.30;99.90;;;;;;5044719;28;20097;-59
2021/09/22 01:55:26;;;;;;;26.13;22.98;;;11.20;99.90;;;;;;5045329;28;20056;-59
2021/09/22 01:58:01;;;;;;;34.05;28.65;;;11.20;99.90;;;;;;5036712;28;20052;-61
2021/09/22 02:01:09;;;;;;;41.17;30.92;;;11.20;99.90;;;;;;5032749;28;20560;-61
2021/09/22 02:03:58;;;;;;;43.63;32.67;;;11.20;99.90;;;;;;5008675;28;20053;-60
2021/09/22 02:06:37;;;;;;;35.53;29.10;;;11.20;99.90;;;;;;5014022;28;20136;-60
2021/09/22 02:09:04;;;;;;;73.82;33.80;;;11.20;99.90;;;;;;5004229;28;20067;-61
2021/09/22 02:11:36;;;;;;;147.63;43.90;;;11.20;99.90;;;;;;5008063;28;20049;-60
2021/09/22 02:14:14;;;;;;;203.57;51.78;;;11.30;99.90;;;;;;5023315;28;20713;-61
2021/09/22 02:16:49;;;;;;;334.08;58.70;;;11.40;99.90;;;;;;5008030;28;20057;-61
2021/09/22 02:19:25;;;;;;;154.60;45.67;;;11.40;99.90;;;;;;5008727;28;20058;-61
2021/09/22 02:22:15;;;;;;;;;;;11.50;99.90;;;;;;5039481;28;20071;-60
2021/09/22 02:24:58;;;;;;;205.10;42.97;;;11.50;99.90;;;;;;5025834;28;19924;-61
2021/09/22 02:27:29;;;;;;;109.22;38.97;;;11.50;99.90;;;;;;5005641;28;20122;-60
2021/09/22 02:30:11;;;;;;;148.23;40.97;;;11.50;99.90;;;;;;5032365;28;20061;-60
2021/09/22 02:32:43;;;;;;;174.45;44.92;;;11.60;99.90;;;;;;5076557;28;20533;-61
2021/09/22 02:35:14;;;;;;;292.90;51.22;;;11.60;99.90;;;;;;5107317;28;20184;-61
2021/09/22 02:38:13;;;;;;;318.13;50.38;;;11.50;99.90;;;;;;5104816;28;20059;-61
2021/09/22 02:40:48;;;;;;;205.20;40.67;;;11.60;99.90;;;;;;5107286;28;20051;-62
2021/09/22 02:43:25;;;;;;;125.82;33.72;;;11.50;99.90;;;;;;5099424;28;20780;-61
2021/09/22 02:45:52;;;;;;;187.00;41.03;;;11.40;99.90;;;;;;5106992;28;20062;-61
2021/09/22 02:48:28;;;;;;;95.38;31.23;;;11.40;99.90;;;;;;5107446;28;20172;-62
2021/09/22 02:50:56;;;;;;;73.07;32.78;;;11.40;99.90;;;;;;5104015;27;20109;-62
2021/09/22 02:53:24;;;;;;;165.35;38.13;;;11.40;99.90;;;;;;5101658;27;20051;-63
2021/09/22 02:55:53;;;;;;;130.43;35.22;;;11.40;99.90;;;;;;5128026;27;20054;-64
2021/09/22 02:58:22;;;;;;;186.50;35.35;;;11.40;99.90;;;;;;5130988;27;20861;-63
2021/09/22 03:00:50;;;;;;;144.35;28.77;;;11.40;99.90;;;;;;5126416;27;20406;-64
2021/09/22 03:03:19;;;;;;;166.88;34.22;;;11.30;99.90;;;;;;5130293;27;20055;-65
2021/09/22 03:05:50;;;;;;;107.38;29.52;;;11.40;99.90;;;;;;5129141;27;20114;-67
2021/09/22 03:08:18;;;;;;;78.53;28.45;;;11.30;99.90;;;;;;5146204;27;20054;-64
2021/09/22 03:10:47;;;;;;;82.38;29.15;;;11.30;99.90;;;;;;5144754;27;20053;-63
2021/09/22 03:13:17;;;;;;;62.97;26.55;;;11.30;99.90;;;;;;5129508;27;20054;-65
2021/09/22 03:15:46;;;;;;;78.30;27.58;;;11.40;99.90;;;;;;5143616;27;20503;-68
2021/09/22 03:18:15;;;;;;;92.43;28.40;;;11.40;99.90;;;;;;5127393;27;20760;-65
2021/09/22 03:20:45;;;;;;;112.15;32.30;;;11.30;99.90;;;;;;5128433;27;20545;-70
2021/09/22 03:23:12;;;;;;;65.50;27.58;;;11.30;99.90;;;;;;5147553;27;20054;-70
2021/09/22 03:25:42;;;;;;;83.38;27.67;;;11.30;99.90;;;;;;5149323;27;20058;-68
2021/09/22 03:28:11;;;;;;;46.22;28.73;;;11.40;99.90;;;;;;5147901;27;20055;-64
2021/09/22 03:30:41;;;;;;;49.08;25.65;;;11.40;99.90;;;;;;5129684;27;20046;-68
2021/09/22 03:33:17;;;;;;;33.63;28.38;;;11.40;99.90;;;;;;5129087;27;20387;-63
2021/09/22 03:35:44;;;;;;;56.30;26.30;;;11.40;99.90;;;;;;5148021;27;20065;-63
2021/09/22 03:38:12;;;;;;;56.28;26.60;;;11.30;99.90;;;;;;5118962;27;20051;-67
2021/09/22 03:40:48;;;;;;;64.15;27.75;;;11.30;99.90;;;;;;5129652;27;20045;-69
2021/09/22 03:43:22;;;;;;;;;;;11.30;99.90;;;;;;5129283;27;20049;-65
2021/09/22 03:45:56;;;;;;;46.88;27.85;;;11.20;99.90;;;;;;5148209;27;20144;-67
2021/09/22 03:48:26;;;;;;;62.50;30.08;;;11.20;99.90;;;;;;5129256;27;20054;-66
2021/09/22 03:50:55;;;;;;;57.45;28.65;;;11.20;99.90;;;;;;5128974;27;20060;-64
2021/09/22 03:53:37;;;;;;;41.22;28.13;;;11.20;99.90;;;;;;5126424;28;20147;-64
2021/09/22 03:56:07;;;;;;;86.43;29.65;;;11.10;99.90;;;;;;5143744;27;20039;-65
2021/09/22 03:58:35;;;;;;;65.18;32.53;;;11.20;99.90;;;;;;5111415;27;20050;-65
2021/09/22 04:01:02;;;;;;;83.82;34.40;;;11.10;99.90;;;;;;5129998;27;20104;-63
2021/09/22 04:03:30;;;;;;;91.45;33.88;;;11.10;99.90;;;;;;5124995;27;20090;-62
2021/09/22 04:05:58;;;;;;;78.03;33.22;;;11.10;99.90;;;;;;5130233;27;20047;-64
2021/09/22 04:08:30;;;;;;;46.20;29.20;;;11.10;99.90;;;;;;5146027;27;20047;-63
2021/09/22 04:10:59;;;;;;;84.20;29.50;;;11.00;99.90;;;;;;5130653;27;20292;-63
2021/09/22 04:13:27;;;;;;;104.45;33.80;;;11.00;99.90;;;;;;5130729;27;20107;-62
2021/09/22 04:15:58;;;;;;;79.20;30.27;;;11.00;99.90;;;;;;5149709;27;20057;-62
2021/09/22 04:18:25;;;;;;;122.85;33.75;;;11.00;99.90;;;;;;5115843;27;20129;-61
2021/09/22 04:20:57;;;;;;;127.43;37.10;;;11.00;99.90;;;;;;5133813;27;20074;-61
2021/09/22 04:23:27;;;;;;;108.40;32.92;;;11.00;99.90;;;;;;5122346;27;20138;-61
2021/09/22 04:25:53;;;;;;;166.02;38.88;;;11.00;99.90;;;;;;5132605;27;20508;-63
2021/09/22 04:28:25;;;;;;;193.40;43.13;;;11.00;99.90;;;;;;5133872;27;20054;-63
2021/09/22 04:31:14;;;;;;;190.43;39.25;;;11.00;99.90;;;;;;5149133;27;20050;-63
2021/09/22 04:34:02;;;;;;;204.55;39.95;;;11.00;99.90;;;;;;5144612;27;20188;-60
2021/09/22 04:36:49;;;;;;;156.93;37.05;;;10.90;99.90;;;;;;5121719;27;20057;-61
2021/09/22 04:39:38;;;;;;;171.95;43.80;;;10.90;99.90;;;;;;5148845;27;20082;-62
2021/09/22 04:42:30;;;;;;;185.00;41.65;;;10.90;99.90;;;;;;5152400;27;20130;-61
2021/09/22 04:45:18;;;;;;;;;;;11.00;99.90;;;;;;5146187;27;20137;-62
2021/09/22 04:48:06;;;;;;;153.55;42.50;;;10.90;99.90;;;;;;5131531;27;19949;-59
2021/09/22 04:50:56;;;;;;;204.15;46.60;;;10.90;99.90;;;;;;5152147;27;20054;-61
2021/09/22 04:53:44;;;;;;;117.65;37.42;;;11.00;99.90;;;;;;5131548;27;20062;-59
2021/09/22 04:56:31;;;;;;;206.48;45.67;;;11.10;99.90;;;;;;5131678;27;20101;-55
2021/09/22 04:59:19;;;;;;;111.18;37.58;;;11.10;99.90;;;;;;5151315;27;20054;-60
2021/09/22 05:02:09;;;;;;;180.45;45.25;;;11.20;99.90;;;;;;5148837;27;20042;-61
2021/09/22 05:04:54;;;;;;;159.77;45.22;;;11.20;99.90;;;;;;5149973;27;20087;-62
2021/09/22 05:07:41;;;;;;;116.50;40.58;;;11.10;99.90;;;;;;5150565;27;20058;-63
2021/09/22 05:10:27;;;;;;;205.18;50.55;;;11.10;99.90;;;;;;5151933;27;20078;-61
2021/09/22 05:13:14;;;;;;;132.50;44.70;;;11.10;99.90;;;;;;5150740;27;20065;-61
2021/09/22 05:16:01;;;;;;;123.53;42.05;;;11.10;99.90;;;;;;5144270;27;20046;-60
2021/09/22 05:18:51;;;;;;;99.13;39.13;;;11.10;99.90;;;;;;5148757;27;20047;-62
2021/09/22 05:21:38;;;;;;;105.53;51.25;;;11.20;99.90;;;;;;5150538;27;20114;-62
2021/09/22 05:24:23;;;;;;;119.05;51.08;;;11.20;99.90;;;;;;5151121;27;20059;-63
2021/09/22 05:27:09;;;;;;;106.32;64.45;;;11.30;99.90;;;;;;5150329;27;20107;-60
2021/09/22 05:29:55;;;;;;;101.15;46.20;;;11.20;99.90;;;;;;5150423;27;20054;-61
2021/09/22 05:32:45;;;;;;;189.77;50.13;;;11.30;99.90;;;;;;5150856;27;20056;-60
2021/09/22 05:35:30;;;;;;;108.07;41.92;;;11.20;99.90;;;;;;5150355;27;20062;-61
2021/09/22 05:38:15;;;;;;;95.72;41.95;;;11.30;99.90;;;;;;5151297;27;20059;-62
2021/09/22 05:41:00;;;;;;;96.40;44.00;;;11.20;99.90;;;;;;5148763;27;20051;-64
2021/09/22 05:43:50;;;;;;;124.50;44.70;;;11.20;99.90;;;;;;5066190;28;20053;-63
2021/09/22 05:46:38;;;;;;;133.35;59.10;;;11.20;99.90;;;;;;5033028;28;20082;-65
2021/09/22 05:49:22;;;;;;;100.60;48.55;;;11.10;99.90;;;;;;5049421;28;20119;-64
2021/09/22 05:52:10;;;;;;;155.40;47.63;;;11.20;99.90;;;;;;5074688;28;20536;-65
2021/09/22 05:54:57;;;;;;;86.90;44.05;;;11.20;99.90;;;;;;5071779;28;20057;-64
2021/09/22 05:57:45;;;;;;;86.85;56.72;;;11.20;99.90;;;;;;5061683;28;20135;-65
2021/09/22 06:00:42;;;;;;;106.18;43.25;;;11.30;99.90;;;;;;5069369;28;20055;-64
2021/09/22 06:03:28;;;;;;;195.43;48.40;;;11.30;99.90;;;;;;5064947;28;20099;-64
2021/09/22 06:06:16;;;;;;;121.63;42.97;;;11.40;99.90;;;;;;5064178;28;20471;-62
2021/09/22 06:09:03;;;;;;;75.13;39.92;;;11.40;99.90;;;;;;5065421;28;20056;-65
2021/09/22 06:11:59;;;;;;;119.85;39.70;;;11.50;99.90;;;;;;5048195;28;20054;-64
2021/09/22 06:14:29;;;;;;;99.40;43.50;;;11.60;99.90;;;;;;5065561;28;20103;-63
2021/09/22 06:17:06;;;;;;;183.60;44.22;;;11.60;99.90;;;;;;5046729;28;20110;-63
2021/09/22 06:19:34;;;;;;;90.43;40.05;;;11.60;99.90;;;;;;5046122;28;20057;-64
2021/09/22 06:22:12;;;;;;;105.85;46.60;;;11.70;99.90;;;;;;5123446;27;20056;-64
2021/09/22 06:24:58;;;;;;;97.22;43.15;;;11.70;99.90;;;;;;5025512;28;20049;-65
2021/09/22 06:27:24;;;;;;;83.35;43.22;;;11.80;99.90;;;;;;5130412;27;20051;-65
2021/09/22 06:29:51;;;;;;;83.50;43.95;;;11.80;99.90;;;;;;5117496;27;20114;-65
2021/09/22 06:32:52;;;;;;;69.55;40.17;;;11.80;99.90;;;;;;5143827;27;20039;-64
2021/09/22 06:35:40;;;;;;;78.65;43.58;;;11.90;99.90;;;;;;5145266;27;20050;-65
2021/09/22 06:38:13;;;;;;;80.00;60.15;;;11.90;99.90;;;;;;5143536;27;20054;-64
2021/09/22 06:40:51;;;;;;;88.50;41.78;;;12.00;99.90;;;;;;5109698;27;20050;-62
2021/09/22 06:43:22;;;;;;;59.13;40.55;;;11.90;99.90;;;;;;5128865;27;20086;-62
2021/09/22 06:45:55;;;;;;;77.55;43.22;;;11.90;99.90;;;;;;5146659;27;20042;-62
2021/09/22 06:48:23;;;;;;;66.07;43.75;;;11.90;99.90;;;;;;5131965;27;20083;-61
2021/09/22 06:50:49;;;;;;;59.45;40.40;;;11.90;99.90;;;;;;5148365;27;20055;-62
2021/09/22 06:53:23;;;;;;;76.90;47.75;;;12.00;99.90;;;;;;5148680;27;20050;-62
2021/09/22 06:55:52;;;;;;;67.88;45.33;;;12.10;99.90;;;;;;5149268;27;20051;-58
2021/09/22 06:58:18;;;;;;;62.55;46.03;;;12.10;99.90;;;;;;5148532;27;20053;-61
2021/09/22 07:00:45;;;;;;;75.53;47.20;;;12.10;99.90;;;;;;5148239;27;20554;-62
2021/09/22 07:03:11;;;;;;;68.80;46.53;;;12.10;99.90;;;;;;5149272;27;20051;-62
2021/09/22 07:05:39;;;;;;;79.53;48.95;;;12.20;99.90;;;;;;5132202;27;20075;-61
2021/09/22 07:08:05;;;;;;;68.40;46.40;;;12.30;99.90;;;;;;5148507;27;20133;-62
2021/09/22 07:10:34;;;;;;;73.25;47.67;;;12.30;99.90;;;;;;5145283;27;20051;-61
2021/09/22 07:13:03;;;;;;;60.50;42.70;;;12.40;99.90;;;;;;5146789;27;20046;-62
2021/09/22 07:15:33;;;;;;;62.75;44.72;;;12.50;99.90;;;;;;5130515;27;20722;-62
2021/09/22 07:18:03;;;;;;;65.90;44.63;;;12.60;99.90;;;;;;5149317;27;20099;-61
2021/09/22 07:20:35;;;;;;;64.05;46.70;;;12.60;99.90;;;;;;5148219;27;20545;-62
2021/09/22 07:23:01;;;;;;;57.95;43.15;;;12.80;99.90;;;;;;5149114;27;20057;-62
2021/09/22 07:25:31;;;;;;;57.92;42.85;;;12.90;99.90;;;;;;5148618;27;20118;-62
2021/09/22 07:27:57;;;;;;;60.78;44.25;;;13.00;99.90;;;;;;5143440;27;20145;-63
2021/09/22 07:30:28;;;;;;;55.55;43.05;;;13.10;99.90;;;;;;5142965;27;20059;-63
2021/09/22 07:32:59;;;;;;;60.08;45.65;;;13.30;99.90;;;;;;5148390;27;20055;-62
2021/09/22 07:35:28;;;;;;;55.33;42.92;;;13.50;99.90;;;;;;5148854;27;20050;-62
2021/09/22 07:37:55;;;;;;;53.88;43.40;;;13.70;99.90;;;;;;5148573;27;20518;-62
2021/09/22 07:40:21;;;;;;;52.65;41.45;;;13.80;99.90;;;;;;5148891;27;20455;-62
2021/09/22 07:42:47;;;;;;;57.72;43.15;;;13.80;99.90;;;;;;5145125;27;20055;-62
2021/09/22 07:45:16;;;;;;;54.72;42.00;;;14.00;99.90;;;;;;5143929;27;20054;-61
2021/09/22 07:47:47;;;;;;;50.07;39.73;;;14.10;99.90;;;;;;5129851;27;20123;-63
2021/09/22 07:50:14;;;;;;;50.10;40.00;;;14.20;99.90;;;;;;5148576;27;20061;-61
2021/09/22 07:52:43;;;;;;;49.72;40.63;;;14.40;99.90;;;;;;5151519;27;20058;-64
2021/09/22 07:55:12;;;;;;;45.85;39.58;;;14.70;99.90;;;;;;5152846;27;20514;-62
2021/09/22 07:57:39;;;;;;;50.63;40.72;;;15.20;99.90;;;;;;5152719;27;20444;-63
2021/09/22 08:00:14;;;;;;;49.53;40.45;;;15.50;99.90;;;;;;5151694;27;20094;-61
2021/09/22 08:02:47;;;;;;;45.85;39.80;;;15.80;99.90;;;;;;5128248;27;20051;-61
2021/09/22 08:05:14;;;;;;;49.55;41.70;;;16.10;99.90;;;;;;5150882;27;20460;-64
2021/09/22 08:07:51;;;;;;;48.70;41.03;;;16.20;99.90;;;;;;5152831;27;20527;-63
2021/09/22 08:10:18;;;;;;;46.08;40.40;;;16.00;99.90;;;;;;5153370;27;20051;-63
2021/09/22 08:12:51;;;;;;;45.42;39.28;;;16.40;99.90;;;;;;5153095;27;20402;-64
2021/09/22 08:15:21;;;;;;;45.60;40.20;;;16.70;99.90;;;;;;5148215;27;20051;-63
2021/09/22 08:17:47;;;;;;;43.83;39.33;;;16.80;99.90;;;;;;5149186;27;20138;-62
2021/09/22 08:20:15;;;;;;;44.78;40.10;;;17.30;99.90;;;;;;5153361;27;20059;-62
2021/09/22 08:22:45;;;;;;;43.72;39.20;;;17.80;99.90;;;;;;5152384;27;20128;-62
2021/09/22 08:25:14;;;;;;;45.50;40.70;;;18.40;99.90;;;;;;5153069;27;20066;-64
2021/09/22 08:27:43;;;;;;;42.80;38.30;;;18.80;99.90;;;;;;5134122;27;20053;-63
2021/09/22 08:30:10;;;;;;;41.05;36.95;;;19.00;99.90;;;;;;5152714;27;20042;-62
2021/09/22 08:32:38;;;;;;;41.90;37.75;;;19.30;99.90;;;;;;5150531;27;20122;-62
2021/09/22 08:35:07;;;;;;;42.35;38.30;;;19.50;99.90;;;;;;5133576;27;20061;-62
2021/09/22 08:37:33;;;;;;;42.05;38.00;;;19.80;99.90;;;;;;5152313;27;20574;-61
2021/09/22 08:39:59;;;;;;;40.78;36.78;;;20.00;99.90;;;;;;5152405;27;20200;-62
2021/09/22 08:42:28;;;;;;;40.45;36.35;;;20.50;99.90;;;;;;5152852;27;20046;-62
2021/09/22 08:44:58;;;;;;;38.97;35.33;;;20.80;99.90;;;;;;5149586;27;20075;-62
2021/09/22 08:47:24;;;;;;;39.00;35.47;;;21.10;99.90;;;;;;5152696;27;20047;-61
2021/09/22 08:49:59;;;;;;;41.20;37.17;;;21.10;99.90;;;;;;5123261;27;20066;-62
2021/09/22 08:52:25;;;;;;;38.85;35.15;;;20.90;99.90;;;;;;5146975;27;20045;-62
2021/09/22 08:54:51;;;;;;;38.17;34.55;;;20.90;99.90;;;;;;5154872;27;20058;-61
2021/09/22 08:57:20;;;;;;;40.67;36.72;;;20.90;99.90;;;;;;5153154;27;20082;-61
2021/09/22 08:59:52;;;;;;;39.00;35.28;;;20.90;99.90;;;;;;5154549;27;20059;-64
2021/09/22 09:02:19;;;;;;;39.70;36.00;;;20.80;99.90;;;;;;5154234;27;20058;-64
2021/09/22 09:05:00;;;;;;;37.92;34.13;;;21.10;99.90;;;;;;5135428;27;20043;-63
2021/09/22 09:07:32;;;;;;;38.83;35.05;;;21.60;99.90;;;;;;5154694;27;20561;-63
2021/09/22 09:10:07;;;;;;;37.20;33.55;;;21.70;99.90;;;;;;5137326;27;20103;-62
2021/09/22 09:12:36;;;;;;;35.17;31.67;;;21.80;99.90;;;;;;5153326;27;20089;-62
2021/09/22 09:15:09;;;;;;;33.33;30.13;;;21.80;99.90;;;;;;5150100;27;20085;-62
2021/09/22 09:17:42;;;;;;;33.35;30.20;;;22.20;99.90;;;;;;5132772;27;20047;-61
2021/09/22 09:20:21;;;;;;;30.75;27.83;;;22.40;99.90;;;;;;5151464;27;20059;-60
2021/09/22 09:23:05;;;;;;;33.17;29.95;;;21.90;99.90;;;;;;5152313;27;20542;-62
2021/09/22 09:25:40;;;;;;;33.67;30.45;;;22.20;99.90;;;;;;5151807;27;20510;-61
2021/09/22 09:28:39;;;;;;;32.28;29.38;;;22.40;99.90;;;;;;5151433;27;20096;-62
2021/09/22 09:31:32;;;;;;;32.13;29.20;;;22.80;99.90;;;;;;5143808;27;20266;-62
2021/09/22 09:34:01;;;;;;;31.40;28.55;;;22.30;99.90;;;;;;5094201;28;20056;-61
2021/09/22 09:36:45;;;;;;;30.63;27.77;;;22.70;99.90;;;;;;5104383;28;20051;-61
2021/09/22 09:39:19;;;;;;;28.17;25.45;;;22.30;99.90;;;;;;5106271;28;20051;-62
2021/09/22 09:41:51;;;;;;;28.27;25.52;;;22.40;99.90;;;;;;5106530;28;20054;-62
2021/09/22 09:44:30;;;;;;;27.15;24.58;;;22.60;99.90;;;;;;5106774;28;20144;-62
2021/09/22 09:47:14;;;;;;;28.08;24.90;;;23.00;99.90;;;;;;5091070;28;20050;-63
2021/09/22 09:49:54;;;;;;;25.08;22.58;;;23.10;99.90;;;;;;5106119;28;20051;-63
2021/09/22 09:52:25;;;;;;;24.58;22.20;;;23.70;99.90;;;;;;5106639;28;20059;-62
2021/09/22 09:55:00;;;;;;;24.38;22.15;;;24.30;97.70;;;;;;5089483;28;20138;-62
2021/09/22 09:57:31;;;;;;;24.40;21.98;;;24.70;98.50;;;;;;5106966;28;20052;-63
2021/09/22 09:59:59;;;;;;;23.15;20.90;;;24.90;96.60;;;;;;5105057;28;20055;-60
2021/09/22 10:02:33;;;;;;;23.27;20.92;;;24.30;93.60;;;;;;5101572;28;20040;-61
2021/09/22 10:05:05;;;;;;;22.88;20.45;;;24.30;93.20;;;;;;5095732;27;20481;-64
2021/09/22 10:07:35;;;;;;;22.13;20.08;;;24.20;94.20;;;;;;5150740;27;20047;-62
2021/09/22 10:10:07;;;;;;;21.08;19.10;;;23.70;94.80;;;;;;5149855;27;20901;-61
2021/09/22 10:12:36;;;;;;;22.85;20.50;;;23.50;96.70;;;;;;5150066;27;20054;-62
2021/09/22 10:15:09;;;;;;;22.80;20.60;;;23.20;98.70;;;;;;5149894;27;20579;-62
2021/09/22 10:17:37;;;;;;;19.57;17.67;;;23.20;99.50;;;;;;5150020;27;20502;-61
2021/09/22 10:20:07;;;;;;;18.65;16.17;;;23.20;99.90;;;;;;5149106;27;20387;-62
2021/09/22 10:22:35;;;;;;;18.52;16.45;;;23.40;99.90;;;;;;5149367;27;20038;-62
2021/09/22 10:25:02;;;;;;;19.55;17.13;;;23.40;99.30;;;;;;5146437;27;20057;-62
2021/09/22 10:27:32;;;;;;;19.33;15.80;;;23.90;98.60;;;;;;5129501;27;20107;-62
2021/09/22 10:30:05;;;;;;;18.65;16.65;;;23.80;97.00;;;;;;5147420;27;21881;-62
2021/09/22 10:32:35;;;;;;;19.88;17.88;;;23.50;98.30;;;;;;5148476;27;20495;-62
2021/09/22 10:35:20;;;;;;;18.65;16.75;;;23.80;96.20;;;;;;5149441;27;20057;-63
2021/09/22 10:37:54;;;;;;;18.77;16.77;;;23.70;94.40;;;;;;5149835;27;20379;-62
2021/09/22 10:40:56;;;;;;;15.55;13.93;;;23.90;96.90;;;;;;5148981;27;20057;-60
2021/09/22 10:43:26;;;;;;;;;;;24.00;93.30;;;;;;5139490;27;20422;-62
2021/09/22 10:46:10;;;;;;;18.25;16.00;;;24.10;94.30;;;;;;5128559;27;19927;-64
2021/09/22 10:48:42;;;;;;;15.10;13.40;;;24.70;92.40;;;;;;5147509;27;20834;-63
2021/09/22 10:51:25;;;;;;;15.93;13.43;;;24.60;90.50;;;;;;5137178;27;20049;-62
2021/09/22 10:54:13;;;;;;;15.50;13.15;;;23.90;90.80;;;;;;5146445;27;20059;-62
2021/09/22 10:56:57;;;;;;;15.50;12.63;;;23.20;92.20;;;;;;5142004;27;20066;-60
2021/09/22 10:59:31;;;;;;;13.95;12.32;;;22.90;94.30;;;;;;5128057;27;20090;-61
2021/09/22 11:02:00;;;;;;;15.45;13.85;;;22.60;96.70;;;;;;5148775;27;20751;-60
2021/09/22 11:05:01;;;;;;;15.35;13.18;;;22.30;99.70;;;;;;5127740;27;20051;-62
2021/09/22 11:08:08;;;;;;;16.30;14.52;;;22.20;99.90;;;;;;5116319;27;20050;-61
2021/09/22 11:10:44;;;;;;;22.13;14.73;;;21.90;99.90;;;;;;5061272;28;20063;-62
2021/09/22 11:13:21;;;;;;;19.45;15.68;;;21.50;99.90;;;;;;5060734;28;20072;-63
2021/09/22 11:15:52;;;;;;;26.98;24.15;;;22.00;99.90;;;;;;5064544;28;20586;-62
2021/09/22 11:18:23;;;;;;;17.83;15.97;;;22.00;99.90;;;;;;5056885;28;20160;-62
2021/09/22 11:20:57;;;;;;;22.20;16.17;;;21.70;99.90;;;;;;5060595;28;20063;-62
2021/09/22 11:23:31;;;;;;;20.13;16.60;;;21.60;99.90;;;;;;5069797;28;20047;-60
2021/09/22 11:26:10;;;;;;;48.50;43.58;;;21.50;99.90;;;;;;5047691;28;20048;-60
2021/09/22 11:28:49;;;;;;;22.63;19.38;;;21.20;99.90;;;;;;5040306;28;20060;-61
2021/09/22 11:31:22;;;;;;;22.15;18.95;;;21.20;99.90;;;;;;5063759;28;20047;-61
2021/09/22 11:33:55;;;;;;;17.83;14.48;;;21.10;99.90;;;;;;5065477;28;20048;-61
2021/09/22 11:36:29;;;;;;;20.05;15.35;;;20.90;99.90;;;;;;5060892;28;20072;-62
2021/09/22 11:38:55;;;;;;;19.02;16.55;;;20.80;99.90;;;;;;5049189;28;20049;-60
2021/09/22 11:41:33;;;;;;;19.65;15.27;;;20.60;99.90;;;;;;5059849;28;20053;-63
2021/09/22 11:44:10;;;;;;;41.88;37.65;;;20.60;99.90;;;;;;5089170;27;20057;-65
2021/09/22 11:46:36;;;;;;;21.70;14.85;;;20.50;99.90;;;;;;5136774;27;20765;-64
2021/09/22 11:49:04;;;;;;;16.77;14.63;;;20.60;99.90;;;;;;5149461;27;20518;-63
2021/09/22 11:51:31;;;;;;;24.75;16.23;;;20.70;99.90;;;;;;5141957;27;20149;-64
2021/09/22 11:53:59;;;;;;;21.10;16.85;;;21.10;99.90;;;;;;5142538;27;20051;-64
2021/09/22 11:56:28;;;;;;;19.02;15.05;;;22.00;99.90;;;;;;5139859;27;20107;-63
2021/09/22 11:58:56;;;;;;;20.25;14.55;;;23.30;97.60;;;;;;5124005;27;20062;-64
2021/09/22 12:01:27;;;;;;;18.65;13.55;;;24.50;94.70;;;;;;5137438;27;20039;-64
2021/09/22 12:03:53;;;;;;;12.70;11.13;;;25.30;83.00;;;;;;5130624;27;20054;-62
2021/09/22 12:06:20;;;;;;;17.25;11.20;;;26.10;76.70;;;;;;5131276;27;20051;-63
2021/09/22 12:08:50;;;;;;;12.10;9.07;;;26.90;69.40;;;;;;5114540;27;20062;-62
2021/09/22 12:11:18;;;;;;;16.85;11.30;;;27.00;66.10;;;;;;5145947;27;20143;-64
2021/09/22 12:13:53;;;;;;;16.05;14.43;;;26.40;62.90;;;;;;5143221;27;20050;-63
2021/09/22 12:16:21;;;;;;;13.60;11.23;;;25.50;64.50;;;;;;5143350;27;20055;-64
2021/09/22 12:18:55;;;;;;;13.93;11.57;;;25.70;65.50;;;;;;5137750;27;20165;-62
2021/09/22 12:21:24;;;;;;;14.70;11.43;;;25.30;66.40;;;;;;5143755;27;20514;-64
2021/09/22 12:23:50;;;;;;;15.20;12.05;;;24.90;67.90;;;;;;5145562;27;20061;-65
2021/09/22 12:26:17;;;;;;;14.65;11.18;;;24.50;70.80;;;;;;5125892;27;20130;-61
2021/09/22 12:28:43;;;;;;;16.60;10.65;;;24.00;74.40;;;;;;5141822;27;20345;-60
2021/09/22 12:31:20;;;;;;;15.48;10.80;;;23.70;78.70;;;;;;5138550;27;20111;-63
2021/09/22 12:33:47;;;;;;;14.55;10.65;;;23.90;80.90;;;;;;5142932;27;20147;-62
2021/09/22 12:36:17;;;;;;;14.00;10.95;;;24.90;77.30;;;;;;5144706;27;20130;-60
2021/09/22 12:38:50;;;;;;;13.30;9.57;;;25.80;73.70;;;;;;5125993;27;20047;-61
2021/09/22 12:41:19;;;;;;;13.45;8.48;;;26.60;65.40;;;;;;5145584;27;20078;-61
2021/09/22 12:43:48;;;;;;;11.75;7.65;;;27.00;62.40;;;;;;5147657;27;20406;-63
2021/09/22 12:46:17;;;;;;;10.32;7.30;;;27.20;60.00;;;;;;5146425;27;20061;-64
2021/09/22 12:48:44;;;;;;;12.95;8.93;;;27.30;60.80;;;;;;5148418;27;20167;-63
2021/09/22 12:51:21;;;;;;;12.20;8.10;;;27.60;60.50;;;;;;5145462;27;20058;-64
2021/09/22 12:53:49;;;;;;;19.52;17.35;;;28.20;59.90;;;;;;5145337;27;20753;-64
2021/09/22 12:56:18;;;;;;;13.35;8.35;;;27.80;59.70;;;;;;5144282;27;20106;-65
2021/09/22 12:58:45;;;;;;;12.93;8.38;;;27.40;60.00;;;;;;5148686;27;20525;-63
2021/09/22 13:01:13;;;;;;;22.38;20.02;;;27.60;59.60;;;;;;5124925;27;20082;-62
2021/09/22 13:03:47;;;;;;;11.05;7.47;;;27.40;58.70;;;;;;5143480;27;20517;-63